sensor_id;sensor_type;location;lat;lon;timestamp;P1;durP1;ratioP1;P2;durP2;ratioP2
1779;SDS011;10019;46.670;14.260;2022-12-20T00:01:41;15.23;;;8.17;;
1779;SDS011;10019;46.670;14.260;2022-12-20T00:04:12;17.63;;;11.23;;
1779;SDS011;10019;46.670;14.260;2022-12-20T00:06:44;14.57;;;10.00;;
1779;SDS011;10019;46.670;14.260;2022-12-20T00:09:17;14.60;;;9.57;;
1779;SDS011;10019;46.670;14.260;2022-12-20T00:11:50;17.47;;;10.07;;
1779;SDS011;10019;46.670;14.260;2022-12-20T00:14:22;17.83;;;11.13;;
1779;SDS011;10019;46.670;14.260;2022-12-20T00:16:53;12.00;;;6.40;;
1779;SDS011;10019;46.670;14.260;2022-12-20T00:19:25;21.90;;;9.10;;
1779;SDS011;10019;46.670;14.260;2022-12-20T00:21:57;15.93;;;8.50;;
1779;SDS011;10019;46.670;14.260;2022-12-20T00:24:30;13.90;;;9.70;;
1779;SDS011;10019;46.670;14.260;2022-12-20T00:27:02;16.97;;;10.10;;
1779;SDS011;10019;46.670;14.260;2022-12-20T00:29:34;15.17;;;8.93;;
1779;SDS011;10019;46.670;14.260;2022-12-20T00:32:05;15.83;;;10.63;;
1779;SDS011;10019;46.670;14.260;2022-12-20T00:34:37;13.33;;;8.70;;
1779;SDS011;10019;46.670;14.260;2022-12-20T00:37:09;16.93;;;8.80;;
1779;SDS011;10019;46.670;14.260;2022-12-20T00:39:42;14.50;;;9.10;;
1779;SDS011;10019;46.670;14.260;2022-12-20T00:42:14;15.07;;;10.63;;
1779;SDS011;10019;46.670;14.260;2022-12-20T00:44:46;12.03;;;8.70;;
1779;SDS011;10019;46.670;14.260;2022-12-20T00:47:18;14.10;;;8.70;;
1779;SDS011;10019;46.670;14.260;2022-12-20T00:49:49;17.30;;;10.73;;
1779;SDS011;10019;46.670;14.260;2022-12-20T00:52:21;20.00;;;10.33;;
1779;SDS011;10019;46.670;14.260;2022-12-20T00:54:54;19.30;;;10.10;;
1779;SDS011;10019;46.670;14.260;2022-12-20T00:57:26;13.80;;;9.40;;
1779;SDS011;10019;46.670;14.260;2022-12-20T00:59:58;14.90;;;8.50;;
1779;SDS011;10019;46.670;14.260;2022-12-20T01:02:29;13.20;;;9.47;;
1779;SDS011;10019;46.670;14.260;2022-12-20T01:05:01;11.23;;;9.30;;
1779;SDS011;10019;46.670;14.260;2022-12-20T01:07:33;15.60;;;9.63;;
1779;SDS011;10019;46.670;14.260;2022-12-20T01:10:07;16.33;;;8.80;;
1779;SDS011;10019;46.670;14.260;2022-12-20T01:12:40;15.23;;;9.70;;
1779;SDS011;10019;46.670;14.260;2022-12-20T01:15:12;13.83;;;8.93;;
1779;SDS011;10019;46.670;14.260;2022-12-20T01:17:43;15.10;;;8.40;;
1779;SDS011;10019;46.670;14.260;2022-12-20T01:20:15;12.93;;;7.47;;
1779;SDS011;10019;46.670;14.260;2022-12-20T01:22:47;13.27;;;8.63;;
1779;SDS011;10019;46.670;14.260;2022-12-20T01:25:21;19.30;;;10.40;;
1779;SDS011;10019;46.670;14.260;2022-12-20T01:27:53;21.90;;;11.40;;
1779;SDS011;10019;46.670;14.260;2022-12-20T01:30:24;15.13;;;8.27;;
1779;SDS011;10019;46.670;14.260;2022-12-20T01:32:56;14.97;;;8.83;;
1779;SDS011;10019;46.670;14.260;2022-12-20T01:35:28;18.83;;;9.50;;
1779;SDS011;10019;46.670;14.260;2022-12-20T01:37:59;20.00;;;9.27;;
1779;SDS011;10019;46.670;14.260;2022-12-20T01:40:33;17.33;;;10.93;;
1779;SDS011;10019;46.670;14.260;2022-12-20T01:43:05;15.50;;;9.33;;
1779;SDS011;10019;46.670;14.260;2022-12-20T01:45:36;12.53;;;8.43;;
1779;SDS011;10019;46.670;14.260;2022-12-20T01:48:08;15.80;;;10.70;;
1779;SDS011;10019;46.670;14.260;2022-12-20T01:50:41;22.10;;;9.70;;
1779;SDS011;10019;46.670;14.260;2022-12-20T01:53:13;15.10;;;8.07;;
1779;SDS011;10019;46.670;14.260;2022-12-20T01:55:46;17.53;;;10.10;;
1779;SDS011;10019;46.670;14.260;2022-12-20T01:58:19;15.97;;;10.10;;
1779;SDS011;10019;46.670;14.260;2022-12-20T02:00:51;13.10;;;8.70;;
1779;SDS011;10019;46.670;14.260;2022-12-20T02:03:23;14.80;;;8.67;;
1779;SDS011;10019;46.670;14.260;2022-12-20T02:05:55;16.10;;;10.13;;
1779;SDS011;10019;46.670;14.260;2022-12-20T02:08:27;17.53;;;10.63;;
1779;SDS011;10019;46.670;14.260;2022-12-20T02:11:03;19.80;;;10.10;;
1779;SDS011;10019;46.670;14.260;2022-12-20T02:13:41;14.87;;;7.50;;
1779;SDS011;10019;46.670;14.260;2022-12-20T02:16:17;20.00;;;9.77;;
1779;SDS011;10019;46.670;14.260;2022-12-20T02:18:55;22.47;;;10.03;;
1779;SDS011;10019;46.670;14.260;2022-12-20T02:21:31;13.67;;;9.63;;
1779;SDS011;10019;46.670;14.260;2022-12-20T02:24:18;15.33;;;8.80;;
1779;SDS011;10019;46.670;14.260;2022-12-20T02:30:14;21.60;;;10.50;;
1779;SDS011;10019;46.670;14.260;2022-12-20T02:32:49;16.07;;;9.70;;
1779;SDS011;10019;46.670;14.260;2022-12-20T02:35:25;18.90;;;10.27;;
1779;SDS011;10019;46.670;14.260;2022-12-20T02:37:59;16.27;;;8.80;;
1779;SDS011;10019;46.670;14.260;2022-12-20T02:40:33;13.43;;;7.77;;
1779;SDS011;10019;46.670;14.260;2022-12-20T02:43:09;13.40;;;9.43;;
1779;SDS011;10019;46.670;14.260;2022-12-20T02:46:03;19.30;;;10.90;;
1779;SDS011;10019;46.670;14.260;2022-12-20T02:48:34;15.63;;;9.10;;
1779;SDS011;10019;46.670;14.260;2022-12-20T02:51:07;17.70;;;8.73;;
1779;SDS011;10019;46.670;14.260;2022-12-20T02:53:39;21.40;;;11.30;;
1779;SDS011;10019;46.670;14.260;2022-12-20T02:56:12;17.50;;;9.90;;
1779;SDS011;10019;46.670;14.260;2022-12-20T02:58:48;19.13;;;9.40;;
1779;SDS011;10019;46.670;14.260;2022-12-20T03:01:24;18.60;;;10.70;;
1779;SDS011;10019;46.670;14.260;2022-12-20T03:03:58;15.27;;;9.10;;
1779;SDS011;10019;46.670;14.260;2022-12-20T03:06:31;14.90;;;8.83;;
1779;SDS011;10019;46.670;14.260;2022-12-20T03:09:02;20.80;;;9.70;;
1779;SDS011;10019;46.670;14.260;2022-12-20T03:11:34;15.93;;;9.70;;
1779;SDS011;10019;46.670;14.260;2022-12-20T03:14:06;15.03;;;9.87;;
1779;SDS011;10019;46.670;14.260;2022-12-20T03:16:39;21.10;;;11.10;;
1779;SDS011;10019;46.670;14.260;2022-12-20T03:19:10;18.20;;;10.77;;
1779;SDS011;10019;46.670;14.260;2022-12-20T03:21:42;19.60;;;11.57;;
1779;SDS011;10019;46.670;14.260;2022-12-20T03:24:14;17.33;;;10.17;;
1779;SDS011;10019;46.670;14.260;2022-12-20T03:26:46;15.57;;;10.17;;
1779;SDS011;10019;46.670;14.260;2022-12-20T03:29:17;16.30;;;10.03;;
1779;SDS011;10019;46.670;14.260;2022-12-20T03:31:51;18.73;;;10.67;;
1779;SDS011;10019;46.670;14.260;2022-12-20T03:34:22;16.67;;;10.70;;
1779;SDS011;10019;46.670;14.260;2022-12-20T03:36:54;20.03;;;11.37;;
1779;SDS011;10019;46.670;14.260;2022-12-20T03:39:26;15.60;;;10.60;;
1779;SDS011;10019;46.670;14.260;2022-12-20T03:41:57;23.10;;;10.57;;
1779;SDS011;10019;46.670;14.260;2022-12-20T03:44:29;17.07;;;11.10;;
1779;SDS011;10019;46.670;14.260;2022-12-20T03:47:02;18.30;;;10.20;;
1779;SDS011;10019;46.670;14.260;2022-12-20T03:49:34;19.27;;;10.00;;
1779;SDS011;10019;46.670;14.260;2022-12-20T03:52:06;15.50;;;9.10;;
1779;SDS011;10019;46.670;14.260;2022-12-20T03:54:37;17.60;;;9.80;;
1779;SDS011;10019;46.670;14.260;2022-12-20T03:57:09;13.97;;;9.67;;
1779;SDS011;10019;46.670;14.260;2022-12-20T03:59:41;16.70;;;10.17;;
1779;SDS011;10019;46.670;14.260;2022-12-20T04:02:14;14.13;;;8.93;;
1779;SDS011;10019;46.670;14.260;2022-12-20T04:04:46;19.23;;;10.50;;
1779;SDS011;10019;46.670;14.260;2022-12-20T04:07:18;17.60;;;10.23;;
1779;SDS011;10019;46.670;14.260;2022-12-20T04:09:50;18.47;;;10.93;;
1779;SDS011;10019;46.670;14.260;2022-12-20T04:12:22;19.30;;;10.20;;
1779;SDS011;10019;46.670;14.260;2022-12-20T04:14:53;18.70;;;10.40;;
1779;SDS011;10019;46.670;14.260;2022-12-20T04:17:26;21.23;;;11.00;;
1779;SDS011;10019;46.670;14.260;2022-12-20T04:19:58;17.37;;;9.43;;
1779;SDS011;10019;46.670;14.260;2022-12-20T04:22:48;20.33;;;11.07;;
1779;SDS011;10019;46.670;14.260;2022-12-20T04:25:21;19.47;;;11.60;;
1779;SDS011;10019;46.670;14.260;2022-12-20T04:27:52;18.30;;;10.23;;
1779;SDS011;10019;46.670;14.260;2022-12-20T04:30:24;21.50;;;11.60;;
1779;SDS011;10019;46.670;14.260;2022-12-20T04:32:57;18.90;;;11.20;;
1779;SDS011;10019;46.670;14.260;2022-12-20T04:35:29;23.40;;;12.53;;
1779;SDS011;10019;46.670;14.260;2022-12-20T04:38:02;19.27;;;11.30;;
1779;SDS011;10019;46.670;14.260;2022-12-20T04:40:33;20.03;;;10.30;;
1779;SDS011;10019;46.670;14.260;2022-12-20T04:43:05;23.10;;;12.47;;
1779;SDS011;10019;46.670;14.260;2022-12-20T04:45:37;22.90;;;10.83;;
1779;SDS011;10019;46.670;14.260;2022-12-20T04:48:10;19.93;;;11.30;;
1779;SDS011;10019;46.670;14.260;2022-12-20T04:50:42;20.97;;;11.77;;
1779;SDS011;10019;46.670;14.260;2022-12-20T04:53:14;22.03;;;12.60;;
1779;SDS011;10019;46.670;14.260;2022-12-20T04:56:03;14.80;;;10.40;;
1779;SDS011;10019;46.670;14.260;2022-12-20T04:58:35;21.53;;;10.67;;
1779;SDS011;10019;46.670;14.260;2022-12-20T05:01:07;20.00;;;10.07;;
1779;SDS011;10019;46.670;14.260;2022-12-20T05:03:40;19.67;;;10.40;;
1779;SDS011;10019;46.670;14.260;2022-12-20T05:06:12;19.67;;;10.00;;
1779;SDS011;10019;46.670;14.260;2022-12-20T05:08:45;20.10;;;11.00;;
1779;SDS011;10019;46.670;14.260;2022-12-20T05:11:17;17.00;;;10.80;;
1779;SDS011;10019;46.670;14.260;2022-12-20T05:13:49;17.53;;;10.00;;
1779;SDS011;10019;46.670;14.260;2022-12-20T05:16:20;19.30;;;9.60;;
1779;SDS011;10019;46.670;14.260;2022-12-20T05:18:53;16.70;;;10.60;;
1779;SDS011;10019;46.670;14.260;2022-12-20T05:21:25;20.60;;;9.73;;
1779;SDS011;10019;46.670;14.260;2022-12-20T05:24:14;19.13;;;9.63;;
1779;SDS011;10019;46.670;14.260;2022-12-20T05:27:03;15.17;;;9.90;;
1779;SDS011;10019;46.670;14.260;2022-12-20T05:29:35;24.83;;;10.70;;
1779;SDS011;10019;46.670;14.260;2022-12-20T05:32:07;19.97;;;9.63;;
1779;SDS011;10019;46.670;14.260;2022-12-20T05:34:40;17.33;;;11.27;;
1779;SDS011;10019;46.670;14.260;2022-12-20T05:37:11;17.80;;;11.30;;
1779;SDS011;10019;46.670;14.260;2022-12-20T05:39:43;19.93;;;10.23;;
1779;SDS011;10019;46.670;14.260;2022-12-20T05:42:15;21.23;;;8.90;;
1779;SDS011;10019;46.670;14.260;2022-12-20T05:44:47;22.17;;;11.17;;
1779;SDS011;10019;46.670;14.260;2022-12-20T05:47:18;20.17;;;10.77;;
1779;SDS011;10019;46.670;14.260;2022-12-20T05:49:51;19.47;;;11.07;;
1779;SDS011;10019;46.670;14.260;2022-12-20T05:52:24;19.17;;;10.27;;
1779;SDS011;10019;46.670;14.260;2022-12-20T05:54:56;25.70;;;13.17;;
1779;SDS011;10019;46.670;14.260;2022-12-20T05:57:28;18.07;;;10.30;;
1779;SDS011;10019;46.670;14.260;2022-12-20T06:00:00;18.63;;;10.20;;
1779;SDS011;10019;46.670;14.260;2022-12-20T06:02:33;17.00;;;10.50;;
1779;SDS011;10019;46.670;14.260;2022-12-20T06:05:06;16.87;;;10.80;;
1779;SDS011;10019;46.670;14.260;2022-12-20T06:07:38;22.10;;;10.40;;
1779;SDS011;10019;46.670;14.260;2022-12-20T06:10:10;18.07;;;11.10;;
1779;SDS011;10019;46.670;14.260;2022-12-20T06:12:42;22.80;;;9.80;;
1779;SDS011;10019;46.670;14.260;2022-12-20T06:15:14;19.53;;;10.10;;
1779;SDS011;10019;46.670;14.260;2022-12-20T06:17:46;21.43;;;10.50;;
1779;SDS011;10019;46.670;14.260;2022-12-20T06:20:19;23.60;;;10.90;;
1779;SDS011;10019;46.670;14.260;2022-12-20T06:22:51;21.90;;;10.47;;
1779;SDS011;10019;46.670;14.260;2022-12-20T06:25:22;19.23;;;11.40;;
1779;SDS011;10019;46.670;14.260;2022-12-20T06:27:54;20.60;;;10.83;;
1779;SDS011;10019;46.670;14.260;2022-12-20T06:30:28;19.30;;;11.07;;
1779;SDS011;10019;46.670;14.260;2022-12-20T06:32:59;20.17;;;10.80;;
1779;SDS011;10019;46.670;14.260;2022-12-20T06:35:32;16.93;;;10.10;;
1779;SDS011;10019;46.670;14.260;2022-12-20T06:38:04;20.00;;;11.10;;
1779;SDS011;10019;46.670;14.260;2022-12-20T06:40:36;17.50;;;9.47;;
1779;SDS011;10019;46.670;14.260;2022-12-20T06:43:08;22.57;;;12.57;;
1779;SDS011;10019;46.670;14.260;2022-12-20T06:45:40;24.90;;;11.30;;
1779;SDS011;10019;46.670;14.260;2022-12-20T06:48:11;19.77;;;11.73;;
1779;SDS011;10019;46.670;14.260;2022-12-20T06:50:44;16.87;;;10.27;;
1779;SDS011;10019;46.670;14.260;2022-12-20T06:53:18;23.07;;;10.37;;
1779;SDS011;10019;46.670;14.260;2022-12-20T06:55:50;22.57;;;11.30;;
1779;SDS011;10019;46.670;14.260;2022-12-20T06:58:22;17.67;;;9.80;;
1779;SDS011;10019;46.670;14.260;2022-12-20T07:00:53;18.67;;;10.33;;
1779;SDS011;10019;46.670;14.260;2022-12-20T07:03:25;17.10;;;10.17;;
1779;SDS011;10019;46.670;14.260;2022-12-20T07:05:58;21.03;;;12.03;;
1779;SDS011;10019;46.670;14.260;2022-12-20T07:08:30;22.80;;;11.40;;
1779;SDS011;10019;46.670;14.260;2022-12-20T07:11:02;18.27;;;10.87;;
1779;SDS011;10019;46.670;14.260;2022-12-20T07:13:35;13.80;;;10.37;;
1779;SDS011;10019;46.670;14.260;2022-12-20T07:16:07;20.40;;;11.47;;
1779;SDS011;10019;46.670;14.260;2022-12-20T07:18:39;31.17;;;12.33;;
1779;SDS011;10019;46.670;14.260;2022-12-20T07:21:12;20.47;;;10.73;;
1779;SDS011;10019;46.670;14.260;2022-12-20T07:23:46;18.40;;;10.23;;
1779;SDS011;10019;46.670;14.260;2022-12-20T07:26:18;21.97;;;11.10;;
1779;SDS011;10019;46.670;14.260;2022-12-20T07:28:49;18.20;;;10.50;;
1779;SDS011;10019;46.670;14.260;2022-12-20T07:31:21;20.63;;;10.23;;
1779;SDS011;10019;46.670;14.260;2022-12-20T07:33:53;19.67;;;9.80;;
1779;SDS011;10019;46.670;14.260;2022-12-20T07:36:26;16.23;;;10.20;;
1779;SDS011;10019;46.670;14.260;2022-12-20T07:38:58;21.20;;;10.93;;
1779;SDS011;10019;46.670;14.260;2022-12-20T07:41:30;20.70;;;10.90;;
1779;SDS011;10019;46.670;14.260;2022-12-20T07:44:01;18.10;;;10.57;;
1779;SDS011;10019;46.670;14.260;2022-12-20T07:46:33;20.37;;;11.27;;
1779;SDS011;10019;46.670;14.260;2022-12-20T07:49:05;21.30;;;11.03;;
1779;SDS011;10019;46.670;14.260;2022-12-20T07:51:39;21.03;;;12.03;;
1779;SDS011;10019;46.670;14.260;2022-12-20T07:54:15;21.77;;;10.23;;
1779;SDS011;10019;46.670;14.260;2022-12-20T07:56:49;20.20;;;10.90;;
1779;SDS011;10019;46.670;14.260;2022-12-20T07:59:23;18.63;;;10.80;;
1779;SDS011;10019;46.670;14.260;2022-12-20T08:01:59;24.97;;;11.87;;
1779;SDS011;10019;46.670;14.260;2022-12-20T08:04:31;21.90;;;11.33;;
1779;SDS011;10019;46.670;14.260;2022-12-20T08:07:05;23.80;;;11.60;;
1779;SDS011;10019;46.670;14.260;2022-12-20T08:09:38;17.93;;;9.60;;
1779;SDS011;10019;46.670;14.260;2022-12-20T08:12:13;23.83;;;11.53;;
1779;SDS011;10019;46.670;14.260;2022-12-20T08:14:47;19.70;;;12.03;;
1779;SDS011;10019;46.670;14.260;2022-12-20T08:17:21;20.30;;;10.87;;
1779;SDS011;10019;46.670;14.260;2022-12-20T08:19:53;23.23;;;10.23;;
1779;SDS011;10019;46.670;14.260;2022-12-20T08:22:27;17.80;;;11.10;;
1779;SDS011;10019;46.670;14.260;2022-12-20T08:24:59;19.47;;;11.23;;
1779;SDS011;10019;46.670;14.260;2022-12-20T08:27:31;17.90;;;9.90;;
1779;SDS011;10019;46.670;14.260;2022-12-20T08:30:03;23.00;;;12.07;;
1779;SDS011;10019;46.670;14.260;2022-12-20T08:32:36;21.03;;;11.90;;
1779;SDS011;10019;46.670;14.260;2022-12-20T08:35:08;18.37;;;10.20;;
1779;SDS011;10019;46.670;14.260;2022-12-20T08:37:41;18.30;;;11.50;;
1779;SDS011;10019;46.670;14.260;2022-12-20T08:40:13;18.03;;;10.00;;
1779;SDS011;10019;46.670;14.260;2022-12-20T08:42:45;23.80;;;11.43;;
1779;SDS011;10019;46.670;14.260;2022-12-20T08:45:17;19.77;;;11.17;;
1779;SDS011;10019;46.670;14.260;2022-12-20T08:47:49;18.80;;;12.20;;
1779;SDS011;10019;46.670;14.260;2022-12-20T08:50:20;19.93;;;11.40;;
1779;SDS011;10019;46.670;14.260;2022-12-20T08:52:54;20.20;;;10.87;;
1779;SDS011;10019;46.670;14.260;2022-12-20T08:55:25;22.60;;;12.33;;
1779;SDS011;10019;46.670;14.260;2022-12-20T08:57:57;20.70;;;12.10;;
1779;SDS011;10019;46.670;14.260;2022-12-20T09:00:29;19.70;;;12.47;;
1779;SDS011;10019;46.670;14.260;2022-12-20T09:03:01;26.00;;;13.60;;
1779;SDS011;10019;46.670;14.260;2022-12-20T09:05:33;17.07;;;10.37;;
1779;SDS011;10019;46.670;14.260;2022-12-20T09:08:06;27.17;;;12.83;;
1779;SDS011;10019;46.670;14.260;2022-12-20T09:10:38;22.00;;;10.93;;
1779;SDS011;10019;46.670;14.260;2022-12-20T09:13:10;23.80;;;12.57;;
1779;SDS011;10019;46.670;14.260;2022-12-20T09:15:41;19.57;;;12.07;;
1779;SDS011;10019;46.670;14.260;2022-12-20T09:18:14;26.27;;;11.60;;
1779;SDS011;10019;46.670;14.260;2022-12-20T09:20:46;22.53;;;11.47;;
1779;SDS011;10019;46.670;14.260;2022-12-20T09:23:19;24.17;;;12.13;;
1779;SDS011;10019;46.670;14.260;2022-12-20T09:25:50;19.83;;;12.60;;
1779;SDS011;10019;46.670;14.260;2022-12-20T09:28:22;22.20;;;12.03;;
1779;SDS011;10019;46.670;14.260;2022-12-20T09:30:56;16.97;;;8.90;;
1779;SDS011;10019;46.670;14.260;2022-12-20T09:33:28;18.30;;;11.43;;
1779;SDS011;10019;46.670;14.260;2022-12-20T09:36:01;19.10;;;10.47;;
1779;SDS011;10019;46.670;14.260;2022-12-20T09:38:34;20.00;;;11.77;;
1779;SDS011;10019;46.670;14.260;2022-12-20T09:41:06;22.50;;;11.57;;
1779;SDS011;10019;46.670;14.260;2022-12-20T09:43:49;19.30;;;11.20;;
1779;SDS011;10019;46.670;14.260;2022-12-20T09:46:21;27.57;;;10.37;;
1779;SDS011;10019;46.670;14.260;2022-12-20T09:48:53;24.47;;;12.20;;
1779;SDS011;10019;46.670;14.260;2022-12-20T09:51:33;19.90;;;11.73;;
1779;SDS011;10019;46.670;14.260;2022-12-20T09:54:30;21.33;;;10.87;;
1779;SDS011;10019;46.670;14.260;2022-12-20T09:57:09;21.37;;;10.10;;
1779;SDS011;10019;46.670;14.260;2022-12-20T09:59:45;21.90;;;13.10;;
1779;SDS011;10019;46.670;14.260;2022-12-20T10:02:18;27.77;;;13.47;;
1779;SDS011;10019;46.670;14.260;2022-12-20T10:04:51;30.57;;;18.60;;
1779;SDS011;10019;46.670;14.260;2022-12-20T10:07:28;30.03;;;15.57;;
1779;SDS011;10019;46.670;14.260;2022-12-20T10:10:18;27.60;;;14.67;;
1779;SDS011;10019;46.670;14.260;2022-12-20T10:13:05;24.17;;;12.93;;
1779;SDS011;10019;46.670;14.260;2022-12-20T10:15:45;23.33;;;12.93;;
1779;SDS011;10019;46.670;14.260;2022-12-20T10:18:23;22.00;;;11.97;;
1779;SDS011;10019;46.670;14.260;2022-12-20T10:21:04;19.77;;;11.50;;
1779;SDS011;10019;46.670;14.260;2022-12-20T10:23:40;19.13;;;10.70;;
1779;SDS011;10019;46.670;14.260;2022-12-20T10:26:17;20.67;;;11.80;;
1779;SDS011;10019;46.670;14.260;2022-12-20T10:28:49;23.33;;;11.83;;
1779;SDS011;10019;46.670;14.260;2022-12-20T10:31:20;19.17;;;11.40;;
1779;SDS011;10019;46.670;14.260;2022-12-20T10:33:52;13.90;;;9.90;;
1779;SDS011;10019;46.670;14.260;2022-12-20T10:36:25;20.30;;;12.93;;
1779;SDS011;10019;46.670;14.260;2022-12-20T10:38:58;28.23;;;12.47;;
1779;SDS011;10019;46.670;14.260;2022-12-20T10:41:33;25.20;;;13.23;;
1779;SDS011;10019;46.670;14.260;2022-12-20T10:44:19;20.43;;;10.83;;
1779;SDS011;10019;46.670;14.260;2022-12-20T10:46:55;17.07;;;11.30;;
1779;SDS011;10019;46.670;14.260;2022-12-20T10:49:29;21.27;;;12.47;;
1779;SDS011;10019;46.670;14.260;2022-12-20T10:52:03;18.10;;;10.13;;
1779;SDS011;10019;46.670;14.260;2022-12-20T10:54:43;18.50;;;10.93;;
1779;SDS011;10019;46.670;14.260;2022-12-20T10:57:19;17.97;;;11.07;;
1779;SDS011;10019;46.670;14.260;2022-12-20T10:59:53;20.23;;;11.80;;
1779;SDS011;10019;46.670;14.260;2022-12-20T11:02:26;18.80;;;11.97;;
1779;SDS011;10019;46.670;14.260;2022-12-20T11:05:00;18.33;;;11.77;;
1779;SDS011;10019;46.670;14.260;2022-12-20T11:07:35;19.07;;;12.43;;
1779;SDS011;10019;46.670;14.260;2022-12-20T11:10:16;25.23;;;13.53;;
1779;SDS011;10019;46.670;14.260;2022-12-20T11:12:52;24.50;;;12.03;;
1779;SDS011;10019;46.670;14.260;2022-12-20T11:15:25;21.63;;;11.43;;
1779;SDS011;10019;46.670;14.260;2022-12-20T11:17:58;24.73;;;12.63;;
1779;SDS011;10019;46.670;14.260;2022-12-20T11:20:36;21.10;;;13.13;;
1779;SDS011;10019;46.670;14.260;2022-12-20T11:23:14;22.73;;;12.30;;
1779;SDS011;10019;46.670;14.260;2022-12-20T11:25:57;19.17;;;11.70;;
1779;SDS011;10019;46.670;14.260;2022-12-20T11:28:41;23.60;;;11.70;;
1779;SDS011;10019;46.670;14.260;2022-12-20T11:31:22;20.00;;;11.40;;
1779;SDS011;10019;46.670;14.260;2022-12-20T11:34:01;21.87;;;12.23;;
1779;SDS011;10019;46.670;14.260;2022-12-20T11:36:38;23.57;;;13.40;;
1779;SDS011;10019;46.670;14.260;2022-12-20T11:39:25;19.20;;;11.63;;
1779;SDS011;10019;46.670;14.260;2022-12-20T11:42:02;24.80;;;12.87;;
1779;SDS011;10019;46.670;14.260;2022-12-20T11:44:43;27.10;;;12.47;;
1779;SDS011;10019;46.670;14.260;2022-12-20T11:50:31;24.37;;;13.87;;
1779;SDS011;10019;46.670;14.260;2022-12-20T11:53:07;18.83;;;12.13;;
1779;SDS011;10019;46.670;14.260;2022-12-20T11:55:45;22.53;;;12.23;;
1779;SDS011;10019;46.670;14.260;2022-12-20T11:58:20;23.10;;;11.50;;
1779;SDS011;10019;46.670;14.260;2022-12-20T12:00:59;20.30;;;11.17;;
1779;SDS011;10019;46.670;14.260;2022-12-20T12:03:35;21.60;;;12.47;;
1779;SDS011;10019;46.670;14.260;2022-12-20T12:06:09;22.93;;;13.20;;
1779;SDS011;10019;46.670;14.260;2022-12-20T12:08:47;20.67;;;11.47;;
1779;SDS011;10019;46.670;14.260;2022-12-20T12:11:21;21.20;;;12.17;;
1779;SDS011;10019;46.670;14.260;2022-12-20T12:13:56;22.50;;;12.33;;
1779;SDS011;10019;46.670;14.260;2022-12-20T12:16:31;22.50;;;12.03;;
1779;SDS011;10019;46.670;14.260;2022-12-20T12:19:07;17.10;;;10.67;;
1779;SDS011;10019;46.670;14.260;2022-12-20T12:21:40;22.90;;;12.07;;
1779;SDS011;10019;46.670;14.260;2022-12-20T12:24:18;28.70;;;13.97;;
1779;SDS011;10019;46.670;14.260;2022-12-20T12:26:52;21.20;;;12.07;;
1779;SDS011;10019;46.670;14.260;2022-12-20T12:29:24;25.53;;;12.73;;
1779;SDS011;10019;46.670;14.260;2022-12-20T12:31:59;25.27;;;13.30;;
1779;SDS011;10019;46.670;14.260;2022-12-20T12:34:38;16.90;;;11.27;;
1779;SDS011;10019;46.670;14.260;2022-12-20T12:37:24;21.93;;;13.37;;
1779;SDS011;10019;46.670;14.260;2022-12-20T12:40:29;23.60;;;11.60;;
1779;SDS011;10019;46.670;14.260;2022-12-20T12:43:19;23.60;;;13.27;;
1779;SDS011;10019;46.670;14.260;2022-12-20T12:46:09;20.27;;;11.97;;
1779;SDS011;10019;46.670;14.260;2022-12-20T12:48:45;23.20;;;12.47;;
1779;SDS011;10019;46.670;14.260;2022-12-20T12:51:22;27.93;;;14.40;;
1779;SDS011;10019;46.670;14.260;2022-12-20T12:54:02;23.43;;;12.50;;
1779;SDS011;10019;46.670;14.260;2022-12-20T12:56:43;28.07;;;15.30;;
1779;SDS011;10019;46.670;14.260;2022-12-20T13:02:23;22.57;;;12.50;;
1779;SDS011;10019;46.670;14.260;2022-12-20T13:08:13;25.67;;;11.20;;
1779;SDS011;10019;46.670;14.260;2022-12-20T13:11:01;19.73;;;11.63;;
1779;SDS011;10019;46.670;14.260;2022-12-20T13:13:33;22.90;;;13.10;;
1779;SDS011;10019;46.670;14.260;2022-12-20T13:16:08;23.13;;;12.93;;
1779;SDS011;10019;46.670;14.260;2022-12-20T13:21:44;21.50;;;13.13;;
1779;SDS011;10019;46.670;14.260;2022-12-20T13:27:20;23.40;;;13.10;;
1779;SDS011;10019;46.670;14.260;2022-12-20T13:33:19;22.03;;;13.57;;
1779;SDS011;10019;46.670;14.260;2022-12-20T13:35:57;21.47;;;12.33;;
1779;SDS011;10019;46.670;14.260;2022-12-20T13:38:39;23.60;;;12.47;;
1779;SDS011;10019;46.670;14.260;2022-12-20T13:41:30;22.40;;;12.97;;
1779;SDS011;10019;46.670;14.260;2022-12-20T13:44:15;27.50;;;15.70;;
1779;SDS011;10019;46.670;14.260;2022-12-20T13:47:03;23.43;;;12.47;;
1779;SDS011;10019;46.670;14.260;2022-12-20T13:49:42;25.47;;;12.03;;
1779;SDS011;10019;46.670;14.260;2022-12-20T13:52:23;23.70;;;13.43;;
1779;SDS011;10019;46.670;14.260;2022-12-20T13:54:58;22.53;;;14.00;;
1779;SDS011;10019;46.670;14.260;2022-12-20T13:57:31;24.77;;;13.07;;
1779;SDS011;10019;46.670;14.260;2022-12-20T14:00:04;26.73;;;12.47;;
1779;SDS011;10019;46.670;14.260;2022-12-20T14:02:42;26.70;;;13.53;;
1779;SDS011;10019;46.670;14.260;2022-12-20T14:05:15;23.43;;;12.50;;
1779;SDS011;10019;46.670;14.260;2022-12-20T14:07:52;21.90;;;13.70;;
1779;SDS011;10019;46.670;14.260;2022-12-20T14:10:29;24.73;;;15.30;;
1779;SDS011;10019;46.670;14.260;2022-12-20T14:13:02;23.87;;;14.97;;
1779;SDS011;10019;46.670;14.260;2022-12-20T14:15:34;28.43;;;15.90;;
1779;SDS011;10019;46.670;14.260;2022-12-20T14:18:14;22.73;;;13.90;;
1779;SDS011;10019;46.670;14.260;2022-12-20T14:20:48;28.13;;;14.77;;
1779;SDS011;10019;46.670;14.260;2022-12-20T14:23:22;23.70;;;14.07;;
1779;SDS011;10019;46.670;14.260;2022-12-20T14:25:56;27.57;;;15.57;;
1779;SDS011;10019;46.670;14.260;2022-12-20T14:28:30;25.57;;;13.23;;
1779;SDS011;10019;46.670;14.260;2022-12-20T14:31:05;24.70;;;12.80;;
1779;SDS011;10019;46.670;14.260;2022-12-20T14:33:38;26.13;;;14.43;;
1779;SDS011;10019;46.670;14.260;2022-12-20T14:36:16;22.37;;;12.27;;
1779;SDS011;10019;46.670;14.260;2022-12-20T14:38:50;32.50;;;18.30;;
1779;SDS011;10019;46.670;14.260;2022-12-20T14:41:29;30.00;;;16.07;;
1779;SDS011;10019;46.670;14.260;2022-12-20T14:44:12;22.70;;;13.80;;
1779;SDS011;10019;46.670;14.260;2022-12-20T14:46:46;30.33;;;16.77;;
1779;SDS011;10019;46.670;14.260;2022-12-20T14:49:20;27.83;;;14.57;;
1779;SDS011;10019;46.670;14.260;2022-12-20T14:52:03;29.40;;;14.60;;
1779;SDS011;10019;46.670;14.260;2022-12-20T14:54:41;23.23;;;13.23;;
1779;SDS011;10019;46.670;14.260;2022-12-20T14:57:21;28.70;;;14.60;;
1779;SDS011;10019;46.670;14.260;2022-12-20T15:00:01;24.50;;;14.10;;
1779;SDS011;10019;46.670;14.260;2022-12-20T15:02:38;30.00;;;14.80;;
1779;SDS011;10019;46.670;14.260;2022-12-20T15:08:21;27.90;;;14.90;;
1779;SDS011;10019;46.670;14.260;2022-12-20T15:10:56;24.17;;;14.33;;
1779;SDS011;10019;46.670;14.260;2022-12-20T15:13:32;27.47;;;14.70;;
1779;SDS011;10019;46.670;14.260;2022-12-20T15:16:11;31.83;;;15.73;;
1779;SDS011;10019;46.670;14.260;2022-12-20T15:18:44;23.57;;;14.60;;
1779;SDS011;10019;46.670;14.260;2022-12-20T15:21:17;31.43;;;15.10;;
1779;SDS011;10019;46.670;14.260;2022-12-20T15:23:58;29.67;;;14.83;;
1779;SDS011;10019;46.670;14.260;2022-12-20T15:26:31;28.03;;;14.10;;
1779;SDS011;10019;46.670;14.260;2022-12-20T15:29:05;29.27;;;14.30;;
1779;SDS011;10019;46.670;14.260;2022-12-20T15:31:37;19.07;;;12.30;;